Time;durP1;ratioP1;P1;durP2;ratioP2;P2;SDS_P1;SDS_P2;PMS_P1;PMS_P2;Temp;Humidity;BMP_temperature;BMP_pressure;BME280_temperature;BME280_humidity;BME280_pressure;Samples;Min_cycle;Max_cycle;Signal;HPM_P1;HPM_P2
2023/02/03 00:02:03;;;;;;;15.40;11.40;;;;;;;5.75;66.03;99999.73;107972;1255;61220;-71
2023/02/03 00:04:31;;;;;;;13.60;11.40;;;;;;;5.75;66.03;100001.32;108100;1254;74290;-72
2023/02/03 00:06:58;;;;;;;15.10;11.70;;;;;;;5.73;65.87;100005.31;108036;1254;72989;-70
2023/02/03 00:09:25;;;;;;;15.70;11.90;;;;;;;5.69;65.86;100003.27;107783;1260;72609;-70
2023/02/03 00:11:52;;;;;;;14.30;11.30;;;;;;;5.67;65.86;100007.33;107968;1254;61103;-70
2023/02/03 00:14:19;;;;;;;14.00;11.00;;;;;;;5.68;66.02;100003.52;107916;1258;59000;-69
2023/02/03 00:16:46;;;;;;;16.70;11.60;;;;;;;5.69;65.96;100008.95;108851;1254;73223;-71
2023/02/03 00:19:13;;;;;;;15.00;11.60;;;;;;;5.72;66.10;100008.11;109219;1259;73101;-71
2023/02/03 00:21:44;;;;;;;15.00;11.30;;;;;;;5.74;66.06;100010.36;108103;1254;71852;-70
2023/02/03 00:24:10;;;;;;;15.50;11.80;;;;;;;5.75;65.97;100012.33;107914;1254;60784;-70
2023/02/03 00:26:41;;;;;;;14.10;11.50;;;;;;;5.74;65.94;100015.09;108033;1254;59637;-70
2023/02/03 00:29:08;;;;;;;15.20;11.30;;;;;;;5.75;65.84;100018.16;107998;1254;73300;-70
2023/02/03 00:31:37;;;;;;;14.80;11.40;;;;;;;5.75;65.87;100015.56;107931;1254;72811;-69
2023/02/03 00:34:05;;;;;;;13.90;10.80;;;;;;;5.71;65.95;100015.30;107985;1254;72055;-70
2023/02/03 00:36:32;;;;;;;16.30;11.90;;;;;;;5.70;65.80;100016.06;107971;1253;61108;-69
2023/02/03 00:38:59;;;;;;;13.50;11.80;;;;;;;5.69;65.92;100017.15;108190;1255;61567;-69
2023/02/03 00:41:28;;;;;;;15.00;11.50;;;;;;;5.69;65.93;100016.40;109254;1254;73198;-70
2023/02/03 00:43:55;;;;;;;14.30;11.30;;;;;;;5.69;66.02;100018.21;108854;1254;72619;-69
2023/02/03 00:46:21;;;;;;;14.10;11.20;;;;;;;5.72;65.98;100014.20;107856;1261;73590;-69
2023/02/03 00:48:48;;;;;;;14.30;11.90;;;;;;;5.75;65.93;100015.95;107870;1254;60782;-69
2023/02/03 00:51:15;;;;;;;15.60;11.70;;;;;;;5.76;65.87;100014.27;108022;1254;60344;-70
2023/02/03 00:53:42;;;;;;;16.40;11.90;;;;;;;5.77;65.94;100018.69;108058;1254;74913;-71
2023/02/03 00:56:11;;;;;;;15.80;11.40;;;;;;;5.77;65.90;100018.27;107940;1253;73763;-70
2023/02/03 00:58:39;;;;;;;13.90;10.90;;;;;;;5.76;65.90;100014.70;108042;1254;72867;-70
2023/02/03 01:01:06;;;;;;;16.40;11.60;;;;;;;5.73;65.81;100017.50;107969;1257;61701;-70
2023/02/03 01:03:34;;;;;;;15.10;10.90;;;;;;;5.70;65.77;100013.21;108727;1254;59928;-72
2023/02/03 01:06:09;;;;;;;16.60;11.70;;;;;;;5.71;65.70;100013.11;109321;1254;72867;-70
2023/02/03 01:08:36;;;;;;;14.70;11.00;;;;;;;5.68;65.78;100017.26;107932;1254;73264;-69
2023/02/03 01:11:16;;;;;;;14.80;11.50;;;;;;;5.68;65.82;100016.02;107946;1255;73050;-70
2023/02/03 01:13:43;;;;;;;14.70;11.60;;;;;;;5.72;65.83;100017.01;107874;1257;59279;-70
2023/02/03 01:16:11;;;;;;;16.20;12.20;;;;;;;5.75;65.80;100020.34;107950;1255;59427;-69
2023/02/03 01:18:39;;;;;;;15.90;12.50;;;;;;;5.78;65.82;100019.48;108006;1257;73587;-69
2023/02/03 01:21:11;;;;;;;15.00;11.20;;;;;;;5.77;65.73;100014.29;107920;1254;73856;-69
2023/02/03 01:23:38;;;;;;;17.10;11.60;;;;;;;5.74;65.70;100019.60;108571;1255;72130;-70
2023/02/03 01:26:07;;;;;;;14.40;11.50;;;;;;;5.72;65.56;100022.13;109253;1257;60342;-70
2023/02/03 01:28:34;;;;;;;15.70;11.40;;;;;;;5.72;65.53;100020.88;108771;1254;60337;-70
2023/02/03 01:31:08;;;;;;;14.50;11.30;;;;;;;5.73;65.60;100021.10;107783;1260;75476;-70
2023/02/03 01:33:36;;;;;;;14.20;11.10;;;;;;;5.73;65.49;100022.96;107842;1255;74755;-70
2023/02/03 01:36:05;;;;;;;14.70;10.90;;;;;;;5.70;65.41;100025.29;108018;1254;73736;-71
2023/02/03 01:38:32;;;;;;;14.90;11.40;;;;;;;5.66;65.43;100023.77;108017;1254;60403;-70
2023/02/03 01:40:59;;;;;;;16.30;11.50;;;;;;;5.64;65.52;100019.25;107953;1257;60389;-70
2023/02/03 01:43:36;;;;;;;15.20;12.00;;;;;;;5.64;65.59;100017.71;107948;1258;73379;-70
2023/02/03 01:46:14;;;;;;;15.00;11.70;;;;;;;5.69;65.46;100020.45;109090;1254;71791;-70
2023/02/03 01:48:41;;;;;;;15.10;11.60;;;;;;;5.67;65.53;100015.48;109022;1258;71890;-70
2023/02/03 01:51:07;;;;;;;15.90;11.30;;;;;;;5.67;65.46;100017.88;108412;1254;60470;-70
2023/02/03 01:53:36;;;;;;;15.40;11.40;;;;;;;5.68;65.41;100012.80;107927;1254;60413;-70
2023/02/03 01:56:03;;;;;;;13.90;11.40;;;;;;;5.68;65.46;100014.12;107821;1257;72320;-70
2023/02/03 01:58:33;;;;;;;16.10;11.30;;;;;;;5.69;65.42;100013.07;107878;1257;72797;-70
2023/02/03 02:01:01;;;;;;;17.40;12.30;;;;;;;5.67;65.48;100017.24;107972;1257;72921;-70
2023/02/03 02:03:40;;;;;;;15.10;11.30;;;;;;;5.65;65.33;100016.72;107906;1257;60463;-70
2023/02/03 02:06:09;;;;;;;15.40;11.70;;;;;;;5.58;65.37;100020.16;107962;1254;59680;-70
2023/02/03 02:08:36;;;;;;;18.10;13.00;;;;;;;5.52;65.21;100017.60;108340;1254;72949;-69
2023/02/03 02:11:03;;;;;;;15.60;12.10;;;;;;;5.48;65.34;100017.30;108873;1255;71960;-69
2023/02/03 02:13:33;;;;;;;14.20;11.10;;;;;;;5.49;65.57;100010.77;108137;1254;72804;-70
2023/02/03 02:16:15;;;;;;;16.10;11.70;;;;;;;5.52;65.64;100009.55;108010;1254;61983;-70
2023/02/03 02:19:07;;;;;;;14.80;11.80;;;;;;;5.51;65.49;100004.92;107863;1254;60476;-70
2023/02/03 02:21:55;;;;;;;15.70;12.20;;;;;;;5.52;65.53;100008.15;107912;1254;74877;-70
2023/02/03 02:24:29;;;;;;;15.90;11.50;;;;;;;5.50;65.70;100004.80;108007;1257;72634;-70
2023/02/03 02:27:37;;;;;;;14.60;11.50;;;;;;;5.53;65.61;100008.83;107979;1255;71686;-70
2023/02/03 02:30:26;;;;;;;14.40;10.90;;;;;;;5.50;65.53;100009.93;108042;1254;60377;-70
2023/02/03 02:33:06;;;;;;;14.00;10.60;;;;;;;5.44;65.60;100019.20;108299;1254;61469;-70
2023/02/03 02:35:44;;;;;;;17.90;12.20;;;;;;;5.33;65.67;100023.66;108136;1254;72685;-71
2023/02/03 02:38:33;;;;;;;15.90;12.20;;;;;;;5.26;65.68;100019.75;108202;1254;71027;-70
2023/02/03 02:41:07;;;;;;;16.50;12.10;;;;;;;5.18;65.78;100022.45;108118;1254;71726;-70
2023/02/03 02:43:43;;;;;;;15.10;11.50;;;;;;;5.16;65.94;100019.30;108050;1254;61247;-71
2023/02/03 02:46:15;;;;;;;15.60;11.80;;;;;;;5.18;66.14;100016.05;107986;1258;60371;-70
2023/02/03 02:49:17;;;;;;;15.30;11.10;;;;;;;5.19;66.20;100017.82;108321;1254;72286;-70
2023/02/03 02:51:44;;;;;;;14.20;11.00;;;;;;;5.22;66.22;100016.39;108043;1254;72966;-71
2023/02/03 02:54:14;;;;;;;16.00;11.90;;;;;;;5.22;66.19;100023.91;107787;1254;71508;-70
2023/02/03 02:56:41;;;;;;;16.80;12.00;;;;;;;5.20;66.23;100024.33;108034;1254;61413;-72
2023/02/03 02:59:08;;;;;;;18.40;12.30;;;;;;;5.17;66.29;100019.73;107937;1253;59435;-70
2023/02/03 03:01:35;;;;;;;17.90;12.30;;;;;;;5.19;66.28;100015.63;108104;1257;74036;-70
2023/02/03 03:04:03;;;;;;;16.60;11.60;;;;;;;5.18;66.36;100011.44;108124;1255;73024;-70
2023/02/03 03:07:07;;;;;;;16.90;12.10;;;;;;;5.13;66.22;100012.56;107970;1254;71788;-70
2023/02/03 03:09:43;;;;;;;;;;;;;;;5.07;66.20;100010.01;108027;1255;61088;-70
2023/02/03 03:12:13;;;;;;;16.20;12.00;;;;;;;5.09;66.51;100004.41;107985;1254;60450;-70
2023/02/03 03:14:44;;;;;;;18.90;12.10;;;;;;;5.12;66.55;100004.58;107971;1254;74570;-70
2023/02/03 03:17:12;;;;;;;18.70;12.80;;;;;;;5.14;66.51;100015.29;108138;1254;72530;-70
2023/02/03 03:19:45;;;;;;;17.20;11.50;;;;;;;5.15;66.43;100014.77;108224;1256;73955;-71
2023/02/03 03:22:14;;;;;;;16.20;11.60;;;;;;;5.11;66.38;100013.80;108437;1255;60655;-70
2023/02/03 03:24:48;;;;;;;16.00;11.40;;;;;;;5.04;66.37;100008.52;107994;1253;60486;-70
2023/02/03 03:27:23;;;;;;;17.30;11.80;;;;;;;5.01;66.57;100012.41;108153;1254;73276;-71
2023/02/03 03:29:53;;;;;;;16.20;11.90;;;;;;;4.98;66.52;100020.08;108076;1254;72864;-70
2023/02/03 03:32:20;;;;;;;15.50;11.60;;;;;;;4.93;66.77;100026.02;108232;1253;72836;-71
2023/02/03 03:34:47;;;;;;;15.40;12.00;;;;;;;4.97;66.69;100023.66;108147;1253;62161;-70
2023/02/03 03:37:22;;;;;;;18.40;11.20;;;;;;;4.98;66.83;100028.87;108251;1253;59410;-70
2023/02/03 03:39:58;;;;;;;16.80;11.50;;;;;;;5.01;66.95;100029.45;108363;1254;72586;-70
2023/02/03 03:42:32;;;;;;;18.30;12.70;;;;;;;5.05;66.81;100027.89;108326;1253;72006;-70
2023/02/03 03:45:00;;;;;;;20.00;13.70;;;;;;;5.08;67.05;100024.69;108224;1253;72734;-69
2023/02/03 03:47:32;;;;;;;19.50;13.80;;;;;;;5.13;66.98;100023.30;108297;1254;60388;-70
2023/02/03 03:49:59;;;;;;;;;;;;;;;5.16;66.84;100021.66;108167;1253;60437;-70
2023/02/03 03:52:28;;;;;;;17.10;12.10;;;;;;;5.18;66.75;100023.72;108179;1254;73297;-70
2023/02/03 03:54:55;;;;;;;18.10;12.40;;;;;;;5.18;66.66;100021.98;108282;1255;73044;-70
2023/02/03 03:57:34;;;;;;;15.60;11.60;;;;;;;5.19;66.66;100017.42;108114;1254;71692;-70
2023/02/03 04:00:03;;;;;;;17.10;11.40;;;;;;;5.22;66.66;100014.85;108283;1256;60793;-70
2023/02/03 04:02:38;;;;;;;19.00;12.60;;;;;;;5.24;66.55;100019.03;108312;1252;61294;-75
2023/02/03 04:05:07;;;;;;;14.70;11.50;;;;;;;5.24;66.53;100018.50;108336;1254;72173;-71
2023/02/03 04:07:41;;;;;;;15.20;11.20;;;;;;;5.24;66.42;100022.30;108280;1256;72181;-70
2023/02/03 04:10:29;;;;;;;15.60;11.60;;;;;;;5.20;66.32;100022.59;108140;1254;73271;-71
2023/02/03 04:12:56;;;;;;;16.10;11.40;;;;;;;5.19;66.35;100026.91;108145;1254;60596;-71
2023/02/03 04:15:23;;;;;;;17.00;11.60;;;;;;;5.16;66.30;100029.56;108160;1253;61284;-71
2023/02/03 04:17:50;;;;;;;17.10;12.00;;;;;;;5.17;66.36;100034.20;108255;1256;73977;-71
2023/02/03 04:20:17;;;;;;;17.50;12.90;;;;;;;5.21;66.29;100032.63;108341;1254;72117;-71
2023/02/03 04:22:46;;;;;;;18.50;11.90;;;;;;;5.24;66.27;100030.04;108305;1254;72704;-71
2023/02/03 04:25:13;;;;;;;16.50;12.20;;;;;;;5.27;66.13;100036.23;108143;1253;61710;-72
2023/02/03 04:27:40;;;;;;;15.30;11.50;;;;;;;5.30;65.99;100042.14;108177;1254;59471;-70
2023/02/03 04:30:08;;;;;;;17.30;12.70;;;;;;;5.22;66.25;100041.70;108287;1254;74965;-71
2023/02/03 04:32:36;;;;;;;15.90;11.80;;;;;;;5.19;66.23;100040.20;108120;1254;73952;-71
2023/02/03 04:35:03;;;;;;;19.00;12.00;;;;;;;5.17;66.21;100043.45;108156;1254;72856;-70
2023/02/03 04:37:31;;;;;;;17.30;12.10;;;;;;;5.18;66.33;100042.52;108256;1254;60251;-71
2023/02/03 04:39:58;;;;;;;15.40;11.00;;;;;;;5.22;66.34;100040.67;108157;1254;61462;-70
2023/02/03 04:42:26;;;;;;;18.20;12.50;;;;;;;5.22;66.30;100044.04;108103;1254;74980;-70
2023/02/03 04:44:53;;;;;;;18.60;12.40;;;;;;;5.23;66.39;100045.54;108722;1254;72986;-70
2023/02/03 04:47:20;;;;;;;17.80;13.10;;;;;;;5.25;66.28;100043.71;108255;1254;73957;-70
2023/02/03 04:49:47;;;;;;;16.80;11.90;;;;;;;5.27;66.32;100038.94;108251;1254;60801;-70
2023/02/03 04:52:13;;;;;;;17.90;12.30;;;;;;;5.32;66.29;100039.89;108237;1253;59776;-70
2023/02/03 04:54:41;;;;;;;17.20;11.60;;;;;;;5.35;66.34;100037.83;108297;1254;74794;-71
2023/02/03 05:10:50;;;;;;;14.10;10.70;;;;;;;5.52;66.07;100046.39;105591;1288;614314;-76
2023/02/03 05:13:18;;;;;;;14.00;11.20;;;;;;;5.96;64.98;100044.33;107173;1266;144002;-76
2023/02/03 05:15:45;;;;;;;15.20;11.10;;;;;;;5.93;64.91;100038.02;107426;1266;59894;-77
2023/02/03 05:18:13;;;;;;;17.70;12.50;;;;;;;5.90;64.75;100045.31;107393;1267;72883;-77
2023/02/03 05:20:40;;;;;;;15.90;11.80;;;;;;;5.83;64.59;100045.40;107420;1269;72388;-76
2023/02/03 05:23:07;;;;;;;17.50;12.10;;;;;;;5.75;64.58;100040.33;107406;1267;70662;-76
2023/02/03 05:25:34;;;;;;;17.50;11.80;;;;;;;5.72;64.61;100041.11;107393;1265;61948;-76
2023/02/03 05:28:00;;;;;;;16.30;12.40;;;;;;;5.69;64.60;100044.29;107422;1267;59494;-75
2023/02/03 05:30:28;;;;;;;17.00;13.00;;;;;;;5.64;64.46;100054.85;107300;1270;71282;-76
2023/02/03 05:32:55;;;;;;;18.30;12.20;;;;;;;5.56;64.36;100065.31;107445;1267;70967;-76
2023/02/03 05:35:22;;;;;;;18.30;13.10;;;;;;;5.52;64.56;100068.95;107484;1266;70623;-76
2023/02/03 05:37:49;;;;;;;17.60;12.40;;;;;;;5.52;64.68;100080.16;107503;1267;62112;-77
2023/02/03 05:43:03;;;;;;;18.00;12.70;;;;;;;5.41;64.79;100085.66;108070;1257;74262;-76
2023/02/03 05:45:30;;;;;;;18.50;12.70;;;;;;;5.39;64.90;100090.93;108009;1257;72471;-76
2023/02/03 05:47:57;;;;;;;16.40;12.20;;;;;;;5.32;64.93;100091.67;107928;1257;73604;-75
2023/02/03 05:50:25;;;;;;;19.00;13.00;;;;;;;5.23;64.92;100094.52;107894;1257;59490;-75
2023/02/03 05:53:07;;;;;;;17.70;12.90;;;;;;;5.12;65.00;100095.59;107892;1257;60360;-76
2023/02/03 05:55:35;;;;;;;20.80;14.10;;;;;;;5.00;65.22;100100.90;107991;1257;70780;-76
2023/02/03 05:58:03;;;;;;;21.60;14.00;;;;;;;4.89;65.47;100103.69;108017;1257;73468;-76
2023/02/03 06:00:30;;;;;;;22.20;14.80;;;;;;;4.80;65.73;100106.55;107871;1259;72004;-76
2023/02/03 06:02:58;;;;;;;20.40;13.10;;;;;;;4.75;66.07;100105.46;107793;1259;61452;-76
2023/02/03 06:05:25;;;;;;;20.60;14.00;;;;;;;4.69;66.32;100106.97;107740;1259;59727;-76
2023/02/03 06:07:52;;;;;;;19.10;13.60;;;;;;;4.64;66.70;100112.67;107563;1262;73449;-76
2023/02/03 06:10:19;;;;;;;22.20;15.10;;;;;;;4.58;66.73;100114.85;107639;1260;73122;-76
2023/02/03 06:12:46;;;;;;;20.40;14.70;;;;;;;4.55;67.13;100112.05;107809;1260;72112;-77
2023/02/03 06:15:13;;;;;;;22.30;15.40;;;;;;;4.55;67.32;100112.78;107809;1261;60123;-76
2023/02/03 06:17:45;;;;;;;20.30;14.70;;;;;;;4.58;67.47;100115.52;107825;1259;60360;-76
2023/02/03 06:20:13;;;;;;;23.00;15.10;;;;;;;4.61;67.71;100115.20;107821;1259;73229;-77
2023/02/03 06:22:40;;;;;;;21.40;13.90;;;;;;;4.64;67.78;100115.92;107800;1259;73870;-77
2023/02/03 06:25:07;;;;;;;19.70;14.10;;;;;;;4.69;67.74;100113.85;107779;1262;72208;-77
2023/02/03 06:27:34;;;;;;;23.30;15.80;;;;;;;4.70;67.92;100113.46;107619;1259;60550;-75
2023/02/03 06:30:01;;;;;;;23.80;15.70;;;;;;;4.71;67.94;100113.00;107623;1258;59423;-75
2023/02/03 06:32:29;;;;;;;21.70;14.70;;;;;;;4.73;68.04;100113.63;107808;1260;72211;-75
2023/02/03 06:34:57;;;;;;;18.50;13.50;;;;;;;4.78;68.21;100110.98;107767;1259;73039;-76
2023/02/03 06:37:23;;;;;;;21.20;14.80;;;;;;;4.85;68.16;100114.28;107641;1259;71442;-75
2023/02/03 06:39:51;;;;;;;20.40;14.00;;;;;;;4.88;68.10;100120.60;107620;1259;60068;-80
2023/02/03 06:42:18;;;;;;;21.00;14.60;;;;;;;4.91;68.09;100123.58;107785;1259;59487;-76
2023/02/03 06:44:46;;;;;;;24.50;15.00;;;;;;;4.91;68.07;100125.80;107734;1259;73244;-76
2023/02/03 06:47:13;;;;;;;21.80;14.90;;;;;;;4.93;68.14;100124.27;107635;1259;72523;-75
2023/02/03 06:49:41;;;;;;;21.00;14.20;;;;;;;4.98;68.19;100125.94;107666;1260;73054;-77
2023/02/03 06:52:08;;;;;;;20.50;14.00;;;;;;;4.98;68.05;100121.51;107780;1259;59906;-75
2023/02/03 06:54:36;;;;;;;20.30;13.20;;;;;;;4.99;68.05;100122.15;107809;1260;59740;-77
2023/02/03 06:57:03;;;;;;;19.80;14.10;;;;;;;5.01;68.04;100124.84;107855;1259;72553;-76
2023/02/03 06:59:30;;;;;;;18.40;12.70;;;;;;;5.04;68.08;100126.87;107811;1261;72187;-76
2023/02/03 07:01:57;;;;;;;22.20;14.70;;;;;;;5.07;68.06;100128.64;107779;1259;71598;-76
2023/02/03 07:04:24;;;;;;;21.70;14.40;;;;;;;5.09;68.04;100126.92;107816;1259;59766;-76
2023/02/03 07:06:51;;;;;;;20.30;13.50;;;;;;;5.13;68.10;100132.52;107893;1259;59717;-76
2023/02/03 07:09:17;;;;;;;20.80;14.30;;;;;;;5.16;68.05;100132.59;107893;1258;71866;-77
2023/02/03 07:11:44;;;;;;;21.00;13.40;;;;;;;5.18;68.06;100136.34;107784;1259;71342;-77
2023/02/03 07:14:11;;;;;;;20.20;14.10;;;;;;;5.18;68.01;100135.81;107802;1259;72772;-76
2023/02/03 07:16:38;;;;;;;22.90;14.60;;;;;;;5.16;67.96;100134.92;107843;1259;61144;-77
2023/02/03 07:19:05;;;;;;;21.60;14.10;;;;;;;5.17;68.03;100130.92;107798;1259;59843;-76
2023/02/03 07:21:34;;;;;;;22.80;15.00;;;;;;;5.17;67.85;100128.02;107811;1259;73400;-78
2023/02/03 07:24:01;;;;;;;24.50;15.40;;;;;;;5.15;67.92;100128.40;107816;1259;73042;-77
2023/02/03 07:26:29;;;;;;;20.40;13.10;;;;;;;5.14;67.94;100132.54;107617;1260;72744;-77
2023/02/03 07:28:58;;;;;;;21.30;13.70;;;;;;;5.07;68.07;100132.86;107716;1259;60312;-77
2023/02/03 07:31:25;;;;;;;24.10;15.10;;;;;;;5.03;68.10;100130.49;107625;1258;60011;-77
2023/02/03 07:33:52;;;;;;;26.70;17.30;;;;;;;5.05;68.20;100136.33;107770;1259;72019;-80
2023/02/03 07:36:19;;;;;;;29.10;18.10;;;;;;;5.11;68.35;100132.64;107767;1259;71376;-77
2023/02/03 07:38:46;;;;;;;29.20;18.10;;;;;;;5.18;68.36;100138.20;107783;1259;70894;-77
2023/02/03 07:41:13;;;;;;;28.10;16.40;;;;;;;5.23;68.33;100138.48;107645;1259;60002;-78
2023/02/03 07:43:42;;;;;;;27.60;16.30;;;;;;;5.29;68.28;100138.34;107701;1259;59989;-78
2023/02/03 07:46:09;;;;;;;25.80;16.80;;;;;;;5.34;68.12;100138.48;107841;1259;72300;-77
2023/02/03 07:48:37;;;;;;;24.90;15.70;;;;;;;5.36;68.07;100140.97;107727;1259;72015;-75
2023/02/03 07:51:04;;;;;;;24.10;16.40;;;;;;;5.39;67.99;100139.97;107685;1263;72909;-77
2023/02/03 07:53:31;;;;;;;25.70;15.80;;;;;;;5.39;67.83;100137.97;107816;1257;60164;-77
2023/02/03 07:56:01;;;;;;;24.60;15.20;;;;;;;5.40;67.70;100140.52;107828;1259;59703;-76
2023/02/03 07:58:29;;;;;;;25.70;16.50;;;;;;;5.38;67.54;100141.80;107816;1258;72431;-76
2023/02/03 08:00:56;;;;;;;23.60;15.20;;;;;;;5.35;67.38;100146.52;107827;1258;73062;-76
2023/02/03 08:03:23;;;;;;;22.80;15.80;;;;;;;5.32;67.40;100148.30;107737;1257;72459;-76
2023/02/03 08:05:51;;;;;;;26.80;17.70;;;;;;;5.30;67.34;100148.96;107764;1257;60186;-76
2023/02/03 08:08:18;;;;;;;20.80;14.80;;;;;;;5.31;67.23;100153.95;108006;1257;60379;-78
2023/02/03 08:10:47;;;;;;;20.90;15.20;;;;;;;5.28;66.98;100154.30;108040;1257;72849;-76
2023/02/03 08:13:14;;;;;;;17.70;13.30;;;;;;;5.28;66.98;100155.83;107820;1257;74324;-76
2023/02/03 08:15:41;;;;;;;17.60;12.50;;;;;;;5.26;66.87;100161.36;107820;1257;71964;-76
2023/02/03 08:18:08;;;;;;;14.80;10.60;;;;;;;5.23;66.73;100162.94;107758;1257;60615;-77
2023/02/03 08:20:36;;;;;;;12.90;9.00;;;;;;;5.18;66.74;100163.99;107889;1257;60612;-77
2023/02/03 08:23:03;;;;;;;11.20;7.50;;;;;;;5.14;66.68;100165.75;107818;1257;74068;-76
2023/02/03 08:25:30;;;;;;;10.90;6.80;;;;;;;5.12;66.69;100170.04;107838;1258;72938;-77
2023/02/03 08:27:58;;;;;;;10.30;6.30;;;;;;;5.10;66.72;100171.42;107831;1257;73852;-77
2023/02/03 08:30:25;;;;;;;11.00;6.90;;;;;;;5.09;66.70;100170.25;107813;1257;61597;-78
2023/02/03 08:32:53;;;;;;;9.80;6.20;;;;;;;5.08;66.75;100174.56;107745;1257;60417;-79
2023/02/03 08:35:21;;;;;;;8.50;5.60;;;;;;;5.06;66.71;100177.60;107804;1257;72351;-79
2023/02/03 08:37:48;;;;;;;9.60;5.70;;;;;;;5.03;66.69;100183.98;107805;1257;72369;-79
2023/02/03 08:40:16;;;;;;;9.90;5.70;;;;;;;4.99;66.71;100188.23;107790;1257;72624;-79
2023/02/03 08:42:43;;;;;;;7.50;5.10;;;;;;;4.96;66.63;100192.34;107772;1261;59547;-78
2023/02/03 08:45:10;;;;;;;8.70;4.50;;;;;;;4.92;66.75;100195.00;107769;1259;60081;-80
2023/02/03 08:47:39;;;;;;;6.10;4.40;;;;;;;4.88;66.88;100200.98;107867;1257;73553;-79
2023/02/03 08:50:06;;;;;;;6.60;4.30;;;;;;;4.86;66.81;100203.05;107850;1259;70811;-80
2023/02/03 08:52:33;;;;;;;5.80;3.90;;;;;;;4.83;66.92;100200.54;107830;1257;72022;-80
2023/02/03 08:55:00;;;;;;;6.40;4.50;;;;;;;4.81;66.95;100205.25;107881;1257;60627;-80
2023/02/03 08:57:31;;;;;;;8.00;4.70;;;;;;;4.80;66.89;100205.82;107849;1257;60683;-79
2023/02/03 08:59:58;;;;;;;7.90;5.30;;;;;;;4.78;66.99;100206.52;107702;1259;72260;-80
2023/02/03 09:02:24;;;;;;;8.10;5.30;;;;;;;4.72;67.06;100216.09;107832;1261;72300;-79
2023/02/03 09:04:51;;;;;;;7.40;5.40;;;;;;;4.63;67.12;100217.45;107774;1258;70439;-79
2023/02/03 09:07:18;;;;;;;8.20;5.80;;;;;;;4.58;67.24;100216.86;107839;1258;60373;-79
2023/02/03 09:09:45;;;;;;;7.60;5.20;;;;;;;4.50;67.31;100224.00;107780;1259;59685;-79
2023/02/03 09:12:12;;;;;;;8.30;5.80;;;;;;;4.44;67.46;100221.03;107829;1257;73633;-81
2023/02/03 09:14:39;;;;;;;8.00;5.80;;;;;;;4.47;67.49;100223.56;107826;1257;71968;-81
2023/02/03 09:17:09;;;;;;;8.20;5.70;;;;;;;4.45;67.60;100223.19;107783;1257;71648;-81
2023/02/03 09:19:36;;;;;;;8.00;5.70;;;;;;;4.44;67.67;100222.59;107837;1257;62348;-81
2023/02/03 09:22:04;;;;;;;8.60;6.00;;;;;;;4.46;67.75;100223.38;108026;1257;62195;-80
2023/02/03 09:24:32;;;;;;;8.80;5.80;;;;;;;4.51;67.85;100225.67;108126;1256;72198;-83
2023/02/03 09:27:00;;;;;;;10.30;6.40;;;;;;;4.52;67.82;100231.10;107882;1259;73767;-82
2023/02/03 09:29:27;;;;;;;9.30;6.20;;;;;;;4.53;67.79;100233.54;107770;1257;72690;-81
2023/02/03 09:31:54;;;;;;;8.70;5.90;;;;;;;4.50;67.76;100232.52;107772;1257;61810;-82
2023/02/03 09:34:21;;;;;;;8.30;5.30;;;;;;;4.48;67.77;100229.63;107821;1257;60300;-82
2023/02/03 09:36:48;;;;;;;7.80;5.40;;;;;;;4.46;67.76;100229.72;107772;1257;73851;-80
2023/02/03 09:39:16;;;;;;;7.00;4.90;;;;;;;4.46;67.75;100231.95;107785;1257;72253;-82
2023/02/03 09:41:47;;;;;;;7.20;4.60;;;;;;;4.49;67.69;100227.88;107808;1257;73688;-81
2023/02/03 09:44:28;;;;;;;8.30;5.30;;;;;;;4.55;67.66;100227.28;107704;1257;61860;-84
2023/02/03 09:47:00;;;;;;;7.20;5.40;;;;;;;4.62;67.70;100229.74;107671;1257;60811;-80
2023/02/03 09:49:31;;;;;;;;;;;;;;;4.71;67.69;100221.36;85241;1258;20002496;-81
2023/02/03 09:52:12;;;;;;;7.70;5.30;;;;;;;4.81;67.68;100217.86;107724;1261;71966;-80
2023/02/03 09:54:42;;;;;;;10.70;5.70;;;;;;;4.89;67.68;100215.37;107605;1257;72989;-79
2023/02/03 09:57:29;;;;;;;9.60;6.60;;;;;;;4.95;67.55;100214.80;108013;1257;60448;-78
2023/02/03 09:59:59;;;;;;;8.20;6.60;;;;;;;5.07;67.46;100213.19;107746;1257;60618;-78
2023/02/03 10:02:46;;;;;;;9.40;7.40;;;;;;;5.20;67.46;100211.58;107581;1257;73504;-79
2023/02/03 10:05:13;;;;;;;11.70;9.80;;;;;;;5.23;67.09;100204.73;108009;1258;73878;-78
2023/02/03 10:08:07;;;;;;;10.70;8.70;;;;;;;5.24;66.91;100203.68;107636;1257;72983;-78
2023/02/03 10:10:41;;;;;;;10.20;7.00;;;;;;;5.27;66.70;100208.23;107515;1259;60866;-77
2023/02/03 10:13:20;;;;;;;9.40;6.40;;;;;;;5.24;66.59;100211.46;107752;1259;60348;-79
2023/02/03 10:16:25;;;;;;;9.60;6.60;;;;;;;5.20;66.46;100216.77;107621;1259;74662;-76
2023/02/03 10:18:53;;;;;;;8.80;6.70;;;;;;;5.17;66.47;100215.34;107692;1257;73063;-75
2023/02/03 10:21:40;;;;;;;10.10;7.40;;;;;;;5.15;66.49;100213.06;107703;1257;72252;-77
2023/02/03 10:24:14;;;;;;;10.60;7.60;;;;;;;5.16;66.52;100213.88;107643;1258;60314;-78
2023/02/03 10:26:45;;;;;;;10.80;7.00;;;;;;;5.17;66.44;100209.60;107496;1257;60343;-76
2023/02/03 10:29:49;;;;;;;9.80;7.20;;;;;;;5.18;66.53;100206.56;107684;1257;74514;-74
2023/02/03 10:32:16;;;;;;;11.20;7.10;;;;;;;5.27;66.56;100200.10;107807;1257;72448;-75
2023/02/03 10:34:43;;;;;;;9.60;7.30;;;;;;;5.30;66.28;100197.61;107595;1257;72609;-74
2023/02/03 10:37:30;;;;;;;9.50;6.50;;;;;;;5.28;66.25;100195.63;107541;1259;61896;-75
2023/02/03 10:39:58;;;;;;;9.20;6.40;;;;;;;5.23;66.11;100190.59;107618;1258;60322;-76
2023/02/03 10:43:46;;;;;;;9.10;6.40;;;;;;;5.25;66.20;100189.40;107619;1257;73805;-76
2023/02/03 10:45:12;;;;;;;9.60;6.90;;;;;;;5.28;66.15;100187.36;107619;1262;72597;-75
2023/02/03 10:47:45;;;;;;;11.20;7.30;;;;;;;5.36;66.34;100185.05;107516;1258;72264;-76
2023/02/03 10:50:15;;;;;;;7.80;6.10;;;;;;;5.58;66.54;100187.59;107717;1257;60410;-76
2023/02/03 10:52:42;;;;;;;10.10;7.20;;;;;;;5.80;66.28;100184.70;107835;1257;60523;-76
2023/02/03 10:55:25;;;;;;;11.80;7.70;;;;;;;5.94;65.90;100182.39;107757;1257;74512;-76
2023/02/03 10:57:53;;;;;;;8.60;6.50;;;;;;;6.07;65.54;100175.75;107849;1257;73636;-76
2023/02/03 11:00:31;;;;;;;11.70;7.90;;;;;;;6.21;65.09;100175.38;107646;1259;71980;-75
2023/02/03 11:03:27;;;;;;;10.00;7.40;;;;;;;6.32;64.94;100173.88;107447;1258;60404;-76
2023/02/03 11:06:14;;;;;;;10.50;7.30;;;;;;;6.44;64.25;100171.45;108017;1259;60309;-75
2023/02/03 11:08:42;;;;;;;10.30;7.60;;;;;;;6.35;63.14;100174.63;108194;1257;73527;-75
2023/02/03 11:11:14;;;;;;;10.70;7.30;;;;;;;6.22;62.80;100170.35;107576;1259;73492;-74
2023/02/03 11:13:41;;;;;;;;;;;;;;;6.08;62.71;100169.38;107543;1263;73971;-75
2023/02/03 11:16:13;;;;;;;10.90;7.40;;;;;;;5.95;62.67;100172.24;107549;1256;60362;-74
2023/02/03 11:18:47;;;;;;;9.30;6.60;;;;;;;5.80;62.64;100172.35;107711;1257;59594;-75
2023/02/03 11:21:18;;;;;;;9.40;5.90;;;;;;;5.68;62.71;100168.77;107694;1257;72872;-75
2023/02/03 11:23:55;;;;;;;9.20;6.00;;;;;;;5.57;62.66;100167.22;107673;1259;72272;-76
2023/02/03 11:26:47;;;;;;;9.60;6.40;;;;;;;5.52;62.69;100175.31;107716;1259;71730;-76
2023/02/03 11:29:34;;;;;;;7.60;5.70;;;;;;;5.55;62.63;100172.20;107649;1259;60466;-76
2023/02/03 11:32:23;;;;;;;9.10;6.10;;;;;;;5.57;62.60;100174.15;107648;1258;61361;-74
2023/02/03 11:35:02;;;;;;;8.00;6.00;;;;;;;5.66;62.63;100171.06;107631;1257;74263;-74
2023/02/03 11:37:36;;;;;;;10.90;6.60;;;;;;;5.80;62.59;100174.56;107592;1257;73929;-75
2023/02/03 11:53:53;;;;;;;6.80;5.10;;;;;;;5.68;61.70;100168.56;105851;1283;613880;-66
2023/02/03 11:56:49;;;;;;;7.00;5.20;;;;;;;6.05;60.65;100168.58;107270;1264;282218;-65
2023/02/03 11:59:30;;;;;;;6.30;4.60;;;;;;;5.99;59.99;100167.17;107524;1264;59342;-67
2023/02/03 12:02:42;;;;;;;6.60;4.60;;;;;;;5.89;59.98;100165.41;107678;1260;72356;-66